sensor_id;sensor_type;location;lat;lon;timestamp;pressure;altitude;pressure_sealevel;temperature;humidity
69842;BME280;57138;51.326;-0.068;2023-03-23T00:01:05;97960.94;;;9.62;87.17
69842;BME280;57138;51.326;-0.068;2023-03-23T00:03:31;97963.13;;;9.65;87.08
69842;BME280;57138;51.326;-0.068;2023-03-23T00:05:59;97968.94;;;9.62;87.29
69842;BME280;57138;51.326;-0.068;2023-03-23T00:08:30;97960.94;;;9.62;86.98
69842;BME280;57138;51.326;-0.068;2023-03-23T00:10:56;97947.03;;;9.60;86.93
69842;BME280;57138;51.326;-0.068;2023-03-23T00:13:25;97960.69;;;9.64;86.84
69842;BME280;57138;51.326;-0.068;2023-03-23T00:15:51;97964.41;;;9.63;87.42
69842;BME280;57138;51.326;-0.068;2023-03-23T00:18:18;97959.31;;;9.61;86.67
69842;BME280;57138;51.326;-0.068;2023-03-23T00:20:55;97959.78;;;9.58;86.64
69842;BME280;57138;51.326;-0.068;2023-03-23T00:23:24;97956.53;;;9.56;86.98
69842;BME280;57138;51.326;-0.068;2023-03-23T00:25:53;97965.13;;;9.58;87.00
69842;BME280;57138;51.326;-0.068;2023-03-23T00:28:20;97974.75;;;9.59;87.16
69842;BME280;57138;51.326;-0.068;2023-03-23T00:30:59;97969.41;;;9.59;87.13
69842;BME280;57138;51.326;-0.068;2023-03-23T00:33:31;97969.41;;;9.59;86.99
69842;BME280;57138;51.326;-0.068;2023-03-23T00:35:59;97984.03;;;9.57;86.83
69842;BME280;57138;51.326;-0.068;2023-03-23T00:38:25;97988.56;;;9.56;86.37
69842;BME280;57138;51.326;-0.068;2023-03-23T00:40:50;97983.22;;;9.56;86.39
69842;BME280;57138;51.326;-0.068;2023-03-23T00:43:18;97976.72;;;9.52;86.26
69842;BME280;57138;51.326;-0.068;2023-03-23T00:45:44;97990.19;;;9.57;86.87
69842;BME280;57138;51.326;-0.068;2023-03-23T00:48:14;97998.75;;;9.59;86.50
69842;BME280;57138;51.326;-0.068;2023-03-23T00:50:40;97997.97;;;9.59;86.68
69842;BME280;57138;51.326;-0.068;2023-03-23T00:53:05;97984.84;;;9.57;86.57
69842;BME280;57138;51.326;-0.068;2023-03-23T00:55:31;97990.06;;;9.52;86.35
69842;BME280;57138;51.326;-0.068;2023-03-23T00:57:57;97997.38;;;9.57;86.13
69842;BME280;57138;51.326;-0.068;2023-03-23T01:00:22;97997.59;;;9.55;85.85
69842;BME280;57138;51.326;-0.068;2023-03-23T01:02:49;98006.66;;;9.54;86.01
69842;BME280;57138;51.326;-0.068;2023-03-23T01:05:17;98001.81;;;9.51;86.55
69842;BME280;57138;51.326;-0.068;2023-03-23T01:07:43;98017.34;;;9.54;86.19
69842;BME280;57138;51.326;-0.068;2023-03-23T01:10:09;98009.22;;;9.49;86.75
69842;BME280;57138;51.326;-0.068;2023-03-23T01:12:40;98015.16;;;9.51;86.89
69842;BME280;57138;51.326;-0.068;2023-03-23T01:15:06;98026.94;;;9.55;87.35
69842;BME280;57138;51.326;-0.068;2023-03-23T01:17:31;98024.75;;;9.52;87.00
69842;BME280;57138;51.326;-0.068;2023-03-23T01:19:56;98030.00;;;9.47;86.99
69842;BME280;57138;51.326;-0.068;2023-03-23T01:22:22;98030.22;;;9.45;87.19
69842;BME280;57138;51.326;-0.068;2023-03-23T01:24:47;98029.75;;;9.48;86.27
69842;BME280;57138;51.326;-0.068;2023-03-23T01:27:13;98026.53;;;9.46;86.10
69842;BME280;57138;51.326;-0.068;2023-03-23T01:29:39;98023.16;;;9.39;84.88
69842;BME280;57138;51.326;-0.068;2023-03-23T01:32:05;98032.22;;;9.38;85.49
69842;BME280;57138;51.326;-0.068;2023-03-23T01:34:30;98036.16;;;9.35;84.97
69842;BME280;57138;51.326;-0.068;2023-03-23T01:36:56;98039.63;;;9.36;84.94
69842;BME280;57138;51.326;-0.068;2023-03-23T01:39:22;98028.28;;;9.29;84.74
69842;BME280;57138;51.326;-0.068;2023-03-23T01:41:47;98030.13;;;9.28;84.27
69842;BME280;57138;51.326;-0.068;2023-03-23T01:46:41;98005.81;;;9.13;83.34
69842;BME280;57138;51.326;-0.068;2023-03-23T01:49:17;98017.28;;;9.13;83.56
69842;BME280;57138;51.326;-0.068;2023-03-23T01:51:46;98021.69;;;9.08;83.26
69842;BME280;57138;51.326;-0.068;2023-03-23T01:54:14;98016.34;;;9.08;83.49
69842;BME280;57138;51.326;-0.068;2023-03-23T01:56:50;98015.09;;;8.98;82.33
69842;BME280;57138;51.326;-0.068;2023-03-23T01:59:17;98023.66;;;9.00;82.95
69842;BME280;57138;51.326;-0.068;2023-03-23T02:01:46;98033.19;;;8.96;82.65
69842;BME280;57138;51.326;-0.068;2023-03-23T02:04:13;98023.78;;;8.94;82.53
69842;BME280;57138;51.326;-0.068;2023-03-23T02:06:40;98020.22;;;8.88;83.24
69842;BME280;57138;51.326;-0.068;2023-03-23T02:09:06;98027.59;;;8.86;83.25
69842;BME280;57138;51.326;-0.068;2023-03-23T02:11:32;98025.84;;;8.80;82.77
69842;BME280;57138;51.326;-0.068;2023-03-23T02:13:58;98021.81;;;8.77;83.26
69842;BME280;57138;51.326;-0.068;2023-03-23T02:16:44;98028.97;;;8.77;83.47
69842;BME280;57138;51.326;-0.068;2023-03-23T02:27:14;98029.22;;;8.63;83.86
69842;BME280;57138;51.326;-0.068;2023-03-23T02:35:29;98047.94;;;8.57;84.29
69842;BME280;57138;51.326;-0.068;2023-03-23T02:38:01;98042.03;;;8.55;84.34
69842;BME280;57138;51.326;-0.068;2023-03-23T02:40:35;98040.06;;;8.50;84.60
69842;BME280;57138;51.326;-0.068;2023-03-23T02:43:07;98048.06;;;8.50;84.93
69842;BME280;57138;51.326;-0.068;2023-03-23T02:45:35;98042.72;;;8.50;84.65
69842;BME280;57138;51.326;-0.068;2023-03-23T02:48:02;98049.91;;;8.50;85.19
69842;BME280;57138;51.326;-0.068;2023-03-23T02:50:29;98040.06;;;8.50;84.87
69842;BME280;57138;51.326;-0.068;2023-03-23T02:52:57;98036.72;;;8.55;84.96
69842;BME280;57138;51.326;-0.068;2023-03-23T02:55:24;98024.44;;;8.54;85.06
69842;BME280;57138;51.326;-0.068;2023-03-23T02:57:52;98026.88;;;8.55;84.53
69842;BME280;57138;51.326;-0.068;2023-03-23T03:00:19;98025.72;;;8.51;84.63
69842;BME280;57138;51.326;-0.068;2023-03-23T03:02:55;98022.34;;;8.44;84.24
69842;BME280;57138;51.326;-0.068;2023-03-23T03:11:08;98033.19;;;8.42;84.26
69842;BME280;57138;51.326;-0.068;2023-03-23T03:13:36;98030.75;;;8.41;84.91
69842;BME280;57138;51.326;-0.068;2023-03-23T03:19:10;98030.06;;;8.34;85.02
69842;BME280;57138;51.326;-0.068;2023-03-23T03:21:42;98033.75;;;8.33;84.70
69842;BME280;57138;51.326;-0.068;2023-03-23T03:24:08;98041.16;;;8.31;85.23
69842;BME280;57138;51.326;-0.068;2023-03-23T03:26:37;98044.97;;;8.23;85.42
69842;BME280;57138;51.326;-0.068;2023-03-23T03:29:05;98043.66;;;8.25;85.48
69842;BME280;57138;51.326;-0.068;2023-03-23T03:31:35;98047.41;;;8.24;85.67
69842;BME280;57138;51.326;-0.068;2023-03-23T03:34:03;98039.25;;;8.19;85.48
69842;BME280;57138;51.326;-0.068;2023-03-23T03:36:30;98047.63;;;8.23;85.76
69842;BME280;57138;51.326;-0.068;2023-03-23T03:39:02;98052.78;;;8.18;85.31
69842;BME280;57138;51.326;-0.068;2023-03-23T03:41:33;98051.41;;;8.15;85.63
69842;BME280;57138;51.326;-0.068;2023-03-23T03:43:59;98061.00;;;8.16;86.12
69842;BME280;57138;51.326;-0.068;2023-03-23T03:46:24;98056.13;;;8.13;86.19
69842;BME280;57138;51.326;-0.068;2023-03-23T03:48:52;98054.53;;;8.12;86.60
69842;BME280;57138;51.326;-0.068;2023-03-23T03:51:17;98057.75;;;8.14;86.75
69842;BME280;57138;51.326;-0.068;2023-03-23T03:53:43;98047.13;;;8.14;86.69
69842;BME280;57138;51.326;-0.068;2023-03-23T03:56:09;98052.78;;;8.18;86.86
69842;BME280;57138;51.326;-0.068;2023-03-23T03:58:36;98054.19;;;8.20;87.57
69842;BME280;57138;51.326;-0.068;2023-03-23T04:01:02;98050.34;;;8.16;87.45
69842;BME280;57138;51.326;-0.068;2023-03-23T04:03:28;98066.84;;;8.25;87.49
69842;BME280;57138;51.326;-0.068;2023-03-23T04:05:54;98065.81;;;8.26;87.56
69842;BME280;57138;51.326;-0.068;2023-03-23T04:08:23;98063.81;;;8.21;87.47
69842;BME280;57138;51.326;-0.068;2023-03-23T04:10:49;98064.84;;;8.20;87.28
69842;BME280;57138;51.326;-0.068;2023-03-23T04:13:15;98057.75;;;8.14;87.05
69842;BME280;57138;51.326;-0.068;2023-03-23T04:15:41;98072.47;;;8.17;87.13
69842;BME280;57138;51.326;-0.068;2023-03-23T04:18:06;98079.63;;;8.16;87.07
69842;BME280;57138;51.326;-0.068;2023-03-23T04:20:33;98090.28;;;8.16;87.00
69842;BME280;57138;51.326;-0.068;2023-03-23T04:23:00;98087.28;;;8.13;87.42
69842;BME280;57138;51.326;-0.068;2023-03-23T04:25:25;98087.50;;;8.11;87.28
69842;BME280;57138;51.326;-0.068;2023-03-23T04:27:52;98094.44;;;8.12;87.75
69842;BME280;57138;51.326;-0.068;2023-03-23T04:30:24;98086.47;;;8.12;88.06
69842;BME280;57138;51.326;-0.068;2023-03-23T04:32:52;98086.91;;;8.09;88.47
69842;BME280;57138;51.326;-0.068;2023-03-23T04:35:22;98088.53;;;8.10;88.86
69842;BME280;57138;51.326;-0.068;2023-03-23T04:37:48;98088.16;;;8.06;88.84
69842;BME280;57138;51.326;-0.068;2023-03-23T04:40:16;98087.38;;;8.06;89.85
69842;BME280;57138;51.326;-0.068;2023-03-23T04:42:43;98099.25;;;8.03;89.77
69842;BME280;57138;51.326;-0.068;2023-03-23T04:45:12;98101.34;;;8.01;90.29
69842;BME280;57138;51.326;-0.068;2023-03-23T04:47:38;98096.69;;;7.97;89.97
69842;BME280;57138;51.326;-0.068;2023-03-23T04:50:11;98094.84;;;7.97;90.31
69842;BME280;57138;51.326;-0.068;2023-03-23T04:52:39;98113.69;;;7.96;90.85
69842;BME280;57138;51.326;-0.068;2023-03-23T04:55:11;98110.00;;;7.97;91.46
69842;BME280;57138;51.326;-0.068;2023-03-23T04:57:36;98115.69;;;8.00;91.33
69842;BME280;57138;51.326;-0.068;2023-03-23T05:00:02;98110.56;;;7.99;91.18
69842;BME280;57138;51.326;-0.068;2023-03-23T05:02:36;98105.84;;;8.01;91.08
69842;BME280;57138;51.326;-0.068;2023-03-23T05:05:01;98097.28;;;7.99;91.47
69842;BME280;57138;51.326;-0.068;2023-03-23T05:07:27;98105.84;;;8.01;91.59
69842;BME280;57138;51.326;-0.068;2023-03-23T05:09:52;98116.47;;;8.01;91.58
69842;BME280;57138;51.326;-0.068;2023-03-23T05:12:17;98111.16;;;8.01;91.75
69842;BME280;57138;51.326;-0.068;2023-03-23T05:14:43;98099.78;;;7.94;91.99
69842;BME280;57138;51.326;-0.068;2023-03-23T05:17:08;98107.34;;;7.97;92.25
69842;BME280;57138;51.326;-0.068;2023-03-23T05:19:35;98116.34;;;7.96;92.13
69842;BME280;57138;51.326;-0.068;2023-03-23T05:22:01;98111.69;;;7.91;92.38
69842;BME280;57138;51.326;-0.068;2023-03-23T05:24:31;98126.84;;;7.90;92.89
69842;BME280;57138;51.326;-0.068;2023-03-23T05:26:59;98129.72;;;7.89;92.50
69842;BME280;57138;51.326;-0.068;2023-03-23T05:29:25;98132.75;;;7.92;92.69
69842;BME280;57138;51.326;-0.068;2023-03-23T05:31:52;98127.88;;;7.89;92.63
69842;BME280;57138;51.326;-0.068;2023-03-23T05:34:19;98126.63;;;7.92;92.88
69842;BME280;57138;51.326;-0.068;2023-03-23T05:36:45;98134.84;;;7.90;92.46
69842;BME280;57138;51.326;-0.068;2023-03-23T05:39:12;98128.47;;;7.91;92.36
69842;BME280;57138;51.326;-0.068;2023-03-23T05:41:39;98131.38;;;7.90;92.02
69842;BME280;57138;51.326;-0.068;2023-03-23T05:44:04;98124.50;;;7.82;92.15
69842;BME280;57138;51.326;-0.068;2023-03-23T05:46:30;98134.69;;;7.85;92.43
69842;BME280;57138;51.326;-0.068;2023-03-23T05:48:56;98133.28;;;7.83;92.21
69842;BME280;57138;51.326;-0.068;2023-03-23T05:51:21;98127.16;;;7.82;91.47
69842;BME280;57138;51.326;-0.068;2023-03-23T05:53:46;98131.88;;;7.80;92.00
69842;BME280;57138;51.326;-0.068;2023-03-23T05:56:13;98130.25;;;7.79;91.42
69842;BME280;57138;51.326;-0.068;2023-03-23T05:58:39;98129.88;;;7.76;91.21
69842;BME280;57138;51.326;-0.068;2023-03-23T06:01:08;98117.91;;;7.66;90.98
69842;BME280;57138;51.326;-0.068;2023-03-23T06:03:33;98119.75;;;7.66;91.13
69842;BME280;57138;51.326;-0.068;2023-03-23T06:06:02;98108.53;;;7.64;91.17
69842;BME280;57138;51.326;-0.068;2023-03-23T06:08:28;98116.97;;;7.61;90.98
69842;BME280;57138;51.326;-0.068;2023-03-23T06:10:54;98115.75;;;7.56;90.71
69842;BME280;57138;51.326;-0.068;2023-03-23T06:13:20;98114.50;;;7.59;91.09
69842;BME280;57138;51.326;-0.068;2023-03-23T06:15:46;98107.63;;;7.51;91.38
69842;BME280;57138;51.326;-0.068;2023-03-23T06:18:13;98118.56;;;7.62;91.84
69842;BME280;57138;51.326;-0.068;2023-03-23T06:20:39;98113.69;;;7.59;92.14
69842;BME280;57138;51.326;-0.068;2023-03-23T06:23:05;98113.69;;;7.59;92.27
69842;BME280;57138;51.326;-0.068;2023-03-23T06:25:30;98119.16;;;7.64;92.34
69842;BME280;57138;51.326;-0.068;2023-03-23T06:27:56;98114.88;;;7.63;93.16
69842;BME280;57138;51.326;-0.068;2023-03-23T06:30:22;98116.50;;;7.64;92.62
69842;BME280;57138;51.326;-0.068;2023-03-23T06:32:48;98122.41;;;7.66;93.23
69842;BME280;57138;51.326;-0.068;2023-03-23T06:35:14;98120.56;;;7.66;93.02
69842;BME280;57138;51.326;-0.068;2023-03-23T06:37:40;98121.38;;;7.67;93.50
69842;BME280;57138;51.326;-0.068;2023-03-23T06:40:06;98119.31;;;7.69;93.46
69842;BME280;57138;51.326;-0.068;2023-03-23T06:42:32;98123.22;;;7.66;93.15
69842;BME280;57138;51.326;-0.068;2023-03-23T06:44:58;98117.31;;;7.64;93.36
69842;BME280;57138;51.326;-0.068;2023-03-23T06:47:26;98128.31;;;7.68;93.79
69842;BME280;57138;51.326;-0.068;2023-03-23T06:49:52;98123.44;;;7.65;94.16
69842;BME280;57138;51.326;-0.068;2023-03-23T06:52:17;98133.41;;;7.69;94.32
69842;BME280;57138;51.326;-0.068;2023-03-23T06:54:43;98125.00;;;7.72;94.95
69842;BME280;57138;51.326;-0.068;2023-03-23T06:57:09;98130.25;;;7.79;95.57
69842;BME280;57138;51.326;-0.068;2023-03-23T06:59:34;98126.94;;;7.84;95.48
69842;BME280;57138;51.326;-0.068;2023-03-23T07:02:00;98120.94;;;7.88;95.87
69842;BME280;57138;51.326;-0.068;2023-03-23T07:04:25;98114.88;;;8.00;95.67
69842;BME280;57138;51.326;-0.068;2023-03-23T07:06:51;98119.31;;;8.06;95.30
69842;BME280;57138;51.326;-0.068;2023-03-23T07:09:16;98107.59;;;8.07;95.12
69842;BME280;57138;51.326;-0.068;2023-03-23T07:11:41;98107.81;;;8.05;95.22
69842;BME280;57138;51.326;-0.068;2023-03-23T07:14:07;98104.94;;;8.07;95.54
69842;BME280;57138;51.326;-0.068;2023-03-23T07:16:33;98118.03;;;8.08;95.94
69842;BME280;57138;51.326;-0.068;2023-03-23T07:18:59;98117.97;;;8.15;95.87
69842;BME280;57138;51.326;-0.068;2023-03-23T07:21:25;98114.19;;;8.23;95.55
69842;BME280;57138;51.326;-0.068;2023-03-23T07:23:51;98117.19;;;8.26;95.66
69842;BME280;57138;51.326;-0.068;2023-03-23T07:26:17;98117.31;;;8.32;95.40
69842;BME280;57138;51.326;-0.068;2023-03-23T07:28:43;98116.66;;;8.36;94.62
69842;BME280;57138;51.326;-0.068;2023-03-23T07:31:08;98114.38;;;8.40;94.53
69842;BME280;57138;51.326;-0.068;2023-03-23T07:33:35;98128.97;;;8.49;94.77
69842;BME280;57138;51.326;-0.068;2023-03-23T07:36:01;98124.84;;;8.53;94.46
69842;BME280;57138;51.326;-0.068;2023-03-23T07:38:28;98126.81;;;8.58;93.75
69842;BME280;57138;51.326;-0.068;2023-03-23T07:40:54;98113.97;;;8.55;93.75
69842;BME280;57138;51.326;-0.068;2023-03-23T07:43:19;98136.94;;;8.68;93.68
69842;BME280;57138;51.326;-0.068;2023-03-23T07:45:46;98131.97;;;8.71;93.30
69842;BME280;57138;51.326;-0.068;2023-03-23T07:48:11;98134.53;;;8.78;91.89
69842;BME280;57138;51.326;-0.068;2023-03-23T07:50:37;98137.31;;;8.83;92.72
69842;BME280;57138;51.326;-0.068;2023-03-23T07:53:03;98140.13;;;8.88;91.99
69842;BME280;57138;51.326;-0.068;2023-03-23T07:55:28;98149.72;;;8.89;91.74
69842;BME280;57138;51.326;-0.068;2023-03-23T07:57:54;98143.72;;;8.94;92.28
69842;BME280;57138;51.326;-0.068;2023-03-23T08:00:21;98138.50;;;8.99;91.58
69842;BME280;57138;51.326;-0.068;2023-03-23T08:02:53;98135.97;;;9.04;90.86
69842;BME280;57138;51.326;-0.068;2023-03-23T08:05:20;98150.69;;;9.07;89.82
69842;BME280;57138;51.326;-0.068;2023-03-23T08:07:48;98163.31;;;9.11;90.43
69842;BME280;57138;51.326;-0.068;2023-03-23T08:10:15;98159.97;;;9.16;89.62
69842;BME280;57138;51.326;-0.068;2023-03-23T08:12:43;98145.63;;;9.29;89.30
69842;BME280;57138;51.326;-0.068;2023-03-23T08:15:11;98145.28;;;9.37;88.49
69842;BME280;57138;51.326;-0.068;2023-03-23T08:17:40;98154.56;;;9.46;87.95
69842;BME280;57138;51.326;-0.068;2023-03-23T08:20:07;98149.56;;;9.50;88.17
69842;BME280;57138;51.326;-0.068;2023-03-23T08:22:44;98150.03;;;9.47;86.62
69842;BME280;57138;51.326;-0.068;2023-03-23T08:25:11;98152.22;;;9.50;87.11
69842;BME280;57138;51.326;-0.068;2023-03-23T08:27:38;98150.25;;;9.57;87.46
69842;BME280;57138;51.326;-0.068;2023-03-23T08:30:10;98157.91;;;9.65;87.43
69842;BME280;57138;51.326;-0.068;2023-03-23T08:32:36;98165.09;;;9.77;85.29
69842;BME280;57138;51.326;-0.068;2023-03-23T08:35:02;98153.47;;;9.83;84.94
69842;BME280;57138;51.326;-0.068;2023-03-23T08:37:28;98156.28;;;9.88;84.05
69842;BME280;57138;51.326;-0.068;2023-03-23T08:39:55;98144.28;;;9.90;84.54
69842;BME280;57138;51.326;-0.068;2023-03-23T08:42:23;98150.00;;;9.94;82.51
69842;BME280;57138;51.326;-0.068;2023-03-23T08:44:48;98147.56;;;9.93;83.45
69842;BME280;57138;51.326;-0.068;2023-03-23T08:47:14;98162.63;;;9.99;83.82
69842;BME280;57138;51.326;-0.068;2023-03-23T08:49:41;98163.44;;;9.99;83.42
69842;BME280;57138;51.326;-0.068;2023-03-23T08:52:07;98167.25;;;10.03;84.12
69842;BME280;57138;51.326;-0.068;2023-03-23T08:54:33;98162.34;;;10.12;82.59
69842;BME280;57138;51.326;-0.068;2023-03-23T08:57:02;98154.13;;;10.14;82.17
69842;BME280;57138;51.326;-0.068;2023-03-23T08:59:28;98148.75;;;10.25;83.42
69842;BME280;57138;51.326;-0.068;2023-03-23T09:01:53;98147.81;;;10.32;82.12
69842;BME280;57138;51.326;-0.068;2023-03-23T09:04:19;98165.81;;;10.36;81.83
69842;BME280;57138;51.326;-0.068;2023-03-23T09:06:44;98160.00;;;10.39;81.32
69842;BME280;57138;51.326;-0.068;2023-03-23T09:09:11;98161.03;;;10.38;82.10
69842;BME280;57138;51.326;-0.068;2023-03-23T09:11:36;98147.78;;;10.43;82.20
69842;BME280;57138;51.326;-0.068;2023-03-23T09:14:03;98159.28;;;10.44;80.76
69842;BME280;57138;51.326;-0.068;2023-03-23T09:16:30;98163.81;;;10.43;81.22
69842;BME280;57138;51.326;-0.068;2023-03-23T09:18:56;98167.88;;;10.46;81.13
69842;BME280;57138;51.326;-0.068;2023-03-23T09:21:23;98159.63;;;10.48;81.38
69842;BME280;57138;51.326;-0.068;2023-03-23T09:23:50;98156.16;;;10.47;80.94
69842;BME280;57138;51.326;-0.068;2023-03-23T09:26:15;98156.38;;;10.46;80.59
69842;BME280;57138;51.326;-0.068;2023-03-23T09:28:41;98170.31;;;10.48;79.85
69842;BME280;57138;51.326;-0.068;2023-03-23T09:31:06;98162.09;;;10.37;80.28
69842;BME280;57138;51.326;-0.068;2023-03-23T09:33:32;98171.63;;;10.33;79.87
69842;BME280;57138;51.326;-0.068;2023-03-23T09:36:01;98144.78;;;10.28;81.05
69842;BME280;57138;51.326;-0.068;2023-03-23T09:38:27;98157.09;;;10.29;81.82
69842;BME280;57138;51.326;-0.068;2023-03-23T09:40:55;98166.84;;;10.35;82.07
69842;BME280;57138;51.326;-0.068;2023-03-23T09:44:27;98168.66;;;10.47;81.64
69842;BME280;57138;51.326;-0.068;2023-03-23T09:49:25;98157.78;;;10.65;81.22
69842;BME280;57138;51.326;-0.068;2023-03-23T09:51:54;98157.72;;;10.60;80.72
69842;BME280;57138;51.326;-0.068;2023-03-23T09:54:34;98178.59;;;10.63;80.99
69842;BME280;57138;51.326;-0.068;2023-03-23T09:57:13;98167.91;;;10.63;81.37
69842;BME280;57138;51.326;-0.068;2023-03-23T09:59:47;98164.66;;;10.61;81.59
69842;BME280;57138;51.326;-0.068;2023-03-23T10:02:34;98174.78;;;10.59;82.73
69842;BME280;57138;51.326;-0.068;2023-03-23T10:05:29;98156.88;;;10.59;82.68
69842;BME280;57138;51.326;-0.068;2023-03-23T10:07:56;98145.63;;;10.57;83.10
69842;BME280;57138;51.326;-0.068;2023-03-23T10:15:54;98138.63;;;10.85;82.13
69842;BME280;57138;51.326;-0.068;2023-03-23T10:18:37;98166.91;;;10.98;80.40
69842;BME280;57138;51.326;-0.068;2023-03-23T10:21:03;98155.19;;;10.99;79.68
69842;BME280;57138;51.326;-0.068;2023-03-23T10:26:47;98167.81;;;10.87;78.26
69842;BME280;57138;51.326;-0.068;2023-03-23T10:29:14;98170.97;;;10.84;78.96
69842;BME280;57138;51.326;-0.068;2023-03-23T10:31:50;98193.38;;;10.83;78.53
69842;BME280;57138;51.326;-0.068;2023-03-23T10:34:19;98191.66;;;10.76;78.49
69842;BME280;57138;51.326;-0.068;2023-03-23T10:37:22;98199.84;;;10.70;80.24
69842;BME280;57138;51.326;-0.068;2023-03-23T10:39:57;98191.13;;;10.63;80.24
69842;BME280;57138;51.326;-0.068;2023-03-23T10:42:26;98197.19;;;10.58;80.90
69842;BME280;57138;51.326;-0.068;2023-03-23T10:44:53;98196.88;;;10.54;81.56
69842;BME280;57138;51.326;-0.068;2023-03-23T10:47:20;98204.47;;;10.46;82.62
69842;BME280;57138;51.326;-0.068;2023-03-23T10:49:58;98193.56;;;10.35;83.79
69842;BME280;57138;51.326;-0.068;2023-03-23T10:52:36;98198.66;;;10.25;85.07
69842;BME280;57138;51.326;-0.068;2023-03-23T10:55:15;98200.78;;;10.23;85.51
69842;BME280;57138;51.326;-0.068;2023-03-23T10:57:44;98197.06;;;10.24;86.37
69842;BME280;57138;51.326;-0.068;2023-03-23T11:00:22;98202.16;;;10.37;87.66
69842;BME280;57138;51.326;-0.068;2023-03-23T11:03:04;98200.16;;;10.45;87.59
69842;BME280;57138;51.326;-0.068;2023-03-23T11:05:36;98197.69;;;10.55;87.64
69842;BME280;57138;51.326;-0.068;2023-03-23T11:08:03;98197.72;;;10.72;88.29
69842;BME280;57138;51.326;-0.068;2023-03-23T11:10:39;98184.34;;;11.01;88.21
69842;BME280;57138;51.326;-0.068;2023-03-23T11:13:12;98198.78;;;11.17;88.12
69842;BME280;57138;51.326;-0.068;2023-03-23T11:15:40;98194.91;;;11.24;85.07
69842;BME280;57138;51.326;-0.068;2023-03-23T11:18:10;98192.72;;;11.21;81.44
69842;BME280;57138;51.326;-0.068;2023-03-23T11:20:41;98195.63;;;11.20;82.35
69842;BME280;57138;51.326;-0.068;2023-03-23T11:23:27;98205.91;;;11.28;82.96
69842;BME280;57138;51.326;-0.068;2023-03-23T11:26:28;98208.53;;;11.40;81.52
69842;BME280;57138;51.326;-0.068;2023-03-23T11:31:40;98221.44;;;11.60;80.66
69842;BME280;57138;51.326;-0.068;2023-03-23T11:34:13;98207.63;;;11.68;79.50
69842;BME280;57138;51.326;-0.068;2023-03-23T11:36:46;98214.69;;;11.74;79.70
69842;BME280;57138;51.326;-0.068;2023-03-23T11:39:30;98223.25;;;11.76;78.21
69842;BME280;57138;51.326;-0.068;2023-03-23T11:41:58;98196.59;;;11.81;80.17
69842;BME280;57138;51.326;-0.068;2023-03-23T11:44:32;98203.78;;;11.81;79.01
69842;BME280;57138;51.326;-0.068;2023-03-23T11:47:00;98190.50;;;11.86;80.42
69842;BME280;57138;51.326;-0.068;2023-03-23T11:50:09;98208.84;;;11.94;80.10
69842;BME280;57138;51.326;-0.068;2023-03-23T11:52:39;98202.75;;;11.82;77.87
69842;BME280;57138;51.326;-0.068;2023-03-23T11:55:20;98196.91;;;11.68;79.09
69842;BME280;57138;51.326;-0.068;2023-03-23T11:57:47;98165.22;;;11.60;79.10
69842;BME280;57138;51.326;-0.068;2023-03-23T12:00:19;98164.06;;;11.56;78.60
69842;BME280;57138;51.326;-0.068;2023-03-23T12:06:06;98166.19;;;11.54;78.93
69842;BME280;57138;51.326;-0.068;2023-03-23T12:09:09;98174.78;;;11.56;77.76
69842;BME280;57138;51.326;-0.068;2023-03-23T12:14:44;98159.94;;;11.48;77.44
69842;BME280;57138;51.326;-0.068;2023-03-23T12:17:28;98173.66;;;11.51;78.44
69842;BME280;57138;51.326;-0.068;2023-03-23T12:22:55;98166.69;;;11.50;78.34
69842;BME280;57138;51.326;-0.068;2023-03-23T12:28:32;98146.75;;;11.80;78.88
69842;BME280;57138;51.326;-0.068;2023-03-23T12:31:20;98131.25;;;11.82;76.67
69842;BME280;57138;51.326;-0.068;2023-03-23T12:33:56;98139.66;;;11.91;77.83
69842;BME280;57138;51.326;-0.068;2023-03-23T12:44:45;98134.31;;;12.35;76.00
69842;BME280;57138;51.326;-0.068;2023-03-23T12:55:36;98123.97;;;13.04;71.77
69842;BME280;57138;51.326;-0.068;2023-03-23T12:58:26;98125.97;;;13.19;70.56
69842;BME280;57138;51.326;-0.068;2023-03-23T13:00:55;98138.19;;;13.37;70.15
69842;BME280;57138;51.326;-0.068;2023-03-23T13:03:25;98129.69;;;13.45;67.68
69842;BME280;57138;51.326;-0.068;2023-03-23T13:08:40;98139.28;;;13.03;66.23
69842;BME280;57138;51.326;-0.068;2023-03-23T13:11:15;98131.34;;;12.86;68.49
69842;BME280;57138;51.326;-0.068;2023-03-23T13:13:53;98132.91;;;12.82;69.50
69842;BME280;57138;51.326;-0.068;2023-03-23T13:22:38;98125.00;;;12.98;68.22
69842;BME280;57138;51.326;-0.068;2023-03-23T13:25:17;98118.66;;;13.09;68.51
69842;BME280;57138;51.326;-0.068;2023-03-23T13:27:44;98112.69;;;13.02;67.35
69842;BME280;57138;51.326;-0.068;2023-03-23T13:30:20;98122.81;;;12.94;68.72
69842;BME280;57138;51.326;-0.068;2023-03-23T13:32:50;98104.00;;;12.89;69.04
69842;BME280;57138;51.326;-0.068;2023-03-23T13:35:17;98108.84;;;12.87;69.13
69842;BME280;57138;51.326;-0.068;2023-03-23T13:37:48;98094.91;;;12.90;68.80
69842;BME280;57138;51.326;-0.068;2023-03-23T13:42:53;98110.13;;;12.85;69.41
69842;BME280;57138;51.326;-0.068;2023-03-23T13:58:46;98092.53;;;12.94;67.75
69842;BME280;57138;51.326;-0.068;2023-03-23T14:01:30;98093.31;;;12.94;68.81
69842;BME280;57138;51.326;-0.068;2023-03-23T14:03:59;98093.38;;;13.00;69.06
69842;BME280;57138;51.326;-0.068;2023-03-23T14:06:26;98104.03;;;12.94;69.38
69842;BME280;57138;51.326;-0.068;2023-03-23T14:09:09;98104.63;;;12.97;68.97
69842;BME280;57138;51.326;-0.068;2023-03-23T14:11:47;98101.38;;;12.94;68.75
69842;BME280;57138;51.326;-0.068;2023-03-23T14:14:20;98099.19;;;12.91;68.63
69842;BME280;57138;51.326;-0.068;2023-03-23T14:16:49;98092.16;;;12.85;68.82
69842;BME280;57138;51.326;-0.068;2023-03-23T14:19:18;98097.00;;;12.83;69.08
69842;BME280;57138;51.326;-0.068;2023-03-23T14:21:56;98081.91;;;12.77;68.97
69842;BME280;57138;51.326;-0.068;2023-03-23T14:24:27;98091.53;;;12.73;69.22
69842;BME280;57138;51.326;-0.068;2023-03-23T14:27:17;98080.22;;;12.66;69.68
69842;BME280;57138;51.326;-0.068;2023-03-23T14:29:44;98064.53;;;12.52;69.96
69842;BME280;57138;51.326;-0.068;2023-03-23T14:32:17;98068.19;;;12.41;70.54
69842;BME280;57138;51.326;-0.068;2023-03-23T14:34:47;98067.56;;;12.34;71.20
69842;BME280;57138;51.326;-0.068;2023-03-23T14:37:14;98080.13;;;12.28;71.90
69842;BME280;57138;51.326;-0.068;2023-03-23T14:39:44;98064.22;;;12.21;72.59
69842;BME280;57138;51.326;-0.068;2023-03-23T14:42:16;98058.28;;;12.14;72.30